createdAt,value
2018-10-19T00:02:55.919Z,100667.00
2018-10-19T00:05:23.871Z,100671.00
2018-10-19T00:10:19.290Z,100664.00
2018-10-19T00:12:47.323Z,100661.00
2018-10-19T00:15:14.961Z,100657.00
2018-10-19T00:17:42.561Z,100655.00
2018-10-19T00:22:37.567Z,100656.00
2018-10-19T00:25:05.752Z,100661.00
2018-10-19T00:27:33.685Z,100654.00
2018-10-19T00:30:01.339Z,100652.00
2018-10-19T00:32:28.986Z,100653.00
2018-10-19T00:37:25.150Z,100656.00
2018-10-19T00:42:20.758Z,100657.00
2018-10-19T00:44:48.417Z,100656.00
2018-10-19T00:47:16.315Z,100659.00
2018-10-19T00:49:43.925Z,100658.00
2018-10-19T00:52:11.655Z,100659.00
2018-10-19T00:57:06.761Z,100658.00
2018-10-19T00:59:34.415Z,100660.00
2018-10-19T01:04:30.060Z,100651.00
2018-10-19T01:06:57.883Z,100646.00
2018-10-19T01:09:25.466Z,100650.00
2018-10-19T01:11:53.054Z,100646.00
2018-10-19T01:16:48.266Z,100650.00
2018-10-19T01:19:15.868Z,100648.00
2018-10-19T01:21:43.922Z,100653.00
2018-10-19T01:24:11.619Z,100656.00
2018-10-19T01:26:39.264Z,100656.00
2018-10-19T01:29:07.100Z,100653.00
2018-10-19T01:31:34.807Z,100657.00
2018-10-19T01:34:02.471Z,100658.00
2018-10-19T01:36:36.141Z,100651.00
2018-10-19T01:39:05.612Z,100651.00
2018-10-19T01:41:33.236Z,100653.00
2018-10-19T01:46:28.285Z,100649.00
2018-10-19T01:48:55.856Z,100654.00
2018-10-19T01:51:23.716Z,100648.00
2018-10-19T01:53:51.308Z,100646.00
2018-10-19T01:56:18.872Z,100649.00
2018-10-19T02:01:13.625Z,100656.00
2018-10-19T02:03:41.270Z,100652.00
2018-10-19T02:06:09.290Z,100653.00
2018-10-19T02:08:36.840Z,100652.00
2018-10-19T02:11:04.969Z,100650.00
2018-10-19T02:13:32.763Z,100658.00
2018-10-19T02:16:00.391Z,100658.00
2018-10-19T02:18:28.443Z,100658.00
2018-10-19T02:20:56.348Z,100658.00
2018-10-19T02:23:23.927Z,100661.00
2018-10-19T02:25:51.485Z,100662.00
2018-10-19T02:28:19.323Z,100660.00
2018-10-19T02:30:46.931Z,100663.00
2018-10-19T02:33:15.136Z,100662.00
2018-10-19T02:38:10.135Z,100666.00
2018-10-19T02:40:37.679Z,100664.00
2018-10-19T02:43:05.727Z,100666.00
2018-10-19T02:45:34.007Z,100668.00
2018-10-19T02:48:02.667Z,100664.00
2018-10-19T02:50:30.633Z,100665.00
2018-10-19T02:52:58.323Z,100666.00
2018-10-19T02:55:25.858Z,100660.00
2018-10-19T03:00:20.869Z,100666.00
2018-10-19T03:02:48.461Z,100668.00
2018-10-19T03:05:16.401Z,100668.00
2018-10-19T03:07:44.077Z,100666.00
2018-10-19T03:10:11.751Z,100668.00
2018-10-19T03:12:39.574Z,100668.00
2018-10-19T03:15:07.655Z,100668.00
2018-10-19T03:17:35.361Z,100671.00
2018-10-19T03:20:03.833Z,100674.00
2018-10-19T03:22:31.414Z,100671.00
2018-10-19T03:24:59.098Z,100671.00
2018-10-19T03:29:54.207Z,100673.00
2018-10-19T03:32:21.865Z,100667.00
2018-10-19T03:37:16.804Z,100671.00
2018-10-19T03:39:44.789Z,100669.00
2018-10-19T03:42:12.829Z,100668.00
2018-10-19T03:44:40.640Z,100668.00
2018-10-19T03:47:08.621Z,100672.00
2018-10-19T03:49:36.201Z,100667.00
2018-10-19T03:52:04.039Z,100666.00
2018-10-19T03:54:31.952Z,100664.00
2018-10-19T03:56:59.581Z,100668.00
2018-10-19T03:59:27.225Z,100668.00
2018-10-19T04:04:22.261Z,100670.00
2018-10-19T04:06:50.194Z,100670.00
2018-10-19T04:09:18.064Z,100670.00
2018-10-19T04:11:45.602Z,100670.00
2018-10-19T04:14:13.507Z,100666.00
2018-10-19T04:16:41.124Z,100668.00
2018-10-19T04:19:09.406Z,100669.00
2018-10-19T04:24:05.098Z,100676.00
2018-10-19T04:26:32.817Z,100674.00
2018-10-19T04:31:27.919Z,100677.00
2018-10-19T04:33:55.539Z,100675.00
2018-10-19T04:36:23.447Z,100675.00
2018-10-19T04:38:51.156Z,100682.00
2018-10-19T04:41:18.966Z,100681.00
2018-10-19T04:46:14.163Z,100680.00
2018-10-19T04:48:41.878Z,100684.00
2018-10-19T04:53:37.094Z,100694.00
2018-10-19T04:56:05.406Z,100697.00
2018-10-19T05:01:00.389Z,100698.00
2018-10-19T05:03:28.013Z,100706.00
2018-10-19T05:08:22.946Z,100701.00
2018-10-19T05:10:50.517Z,100703.00
2018-10-19T05:15:45.547Z,100701.00
2018-10-19T05:18:13.514Z,100705.00
2018-10-19T05:20:41.234Z,100704.00
2018-10-19T05:23:08.972Z,100710.00
2018-10-19T05:28:04.216Z,100711.00
2018-10-19T05:30:32.226Z,100718.00
2018-10-19T05:33:00.565Z,100715.00
2018-10-19T05:35:28.296Z,100722.00
2018-10-19T05:37:56.196Z,100726.00
2018-10-19T05:40:23.766Z,100734.00
2018-10-19T05:42:51.476Z,100739.00
2018-10-19T05:47:46.415Z,100740.00
2018-10-19T05:50:14.365Z,100746.00
2018-10-19T05:52:42.005Z,100751.00
2018-10-19T05:55:10.179Z,100751.00
2018-10-19T06:02:03.604Z,100756.00
2018-10-19T06:04:31.551Z,100757.00
2018-10-19T06:06:59.168Z,100761.00
2018-10-19T06:09:26.961Z,100763.00
2018-10-19T06:12:10.903Z,100761.00
2018-10-19T06:14:38.566Z,100770.00
2018-10-19T06:17:07.890Z,100765.00
2018-10-19T06:22:31.897Z,100772.00
2018-10-19T06:24:59.844Z,100777.00
2018-10-19T06:27:27.464Z,100775.00
2018-10-19T06:29:55.123Z,100774.00
2018-10-19T06:34:49.897Z,100780.00
2018-10-19T06:37:17.583Z,100783.00
2018-10-19T06:39:45.437Z,100785.00
2018-10-19T06:42:13.082Z,100788.00
2018-10-19T06:44:40.731Z,100792.00
2018-10-19T06:47:09.682Z,100795.00
2018-10-19T06:49:37.193Z,100793.00
2018-10-19T06:52:04.998Z,100802.00
2018-10-19T06:57:00.001Z,100808.00
2018-10-19T06:59:27.713Z,100810.00
2018-10-19T07:01:55.508Z,100813.00
2018-10-19T07:04:23.186Z,100814.00
2018-10-19T07:06:50.794Z,100817.00
2018-10-19T07:09:18.871Z,100819.00
2018-10-19T07:11:46.561Z,100822.00
2018-10-19T07:14:14.277Z,100824.00
2018-10-19T07:19:09.630Z,100827.00
2018-10-19T07:21:37.260Z,100827.00
2018-10-19T07:24:05.104Z,100831.00
2018-10-19T07:26:34.599Z,100828.00
2018-10-19T07:29:02.246Z,100831.00
2018-10-19T07:33:57.210Z,100838.00
2018-10-19T07:36:24.808Z,100836.00
2018-10-19T07:41:19.829Z,100837.00
2018-10-19T07:43:48.081Z,100838.00
2018-10-19T07:46:16.099Z,100844.00
2018-10-19T07:48:43.819Z,100843.00
2018-10-19T07:51:11.449Z,100842.00
2018-10-19T07:56:06.796Z,100851.00
2018-10-19T07:58:34.366Z,100854.00
2018-10-19T08:03:29.572Z,100861.00
2018-10-19T08:05:57.250Z,100863.00
2018-10-19T08:10:52.706Z,100866.00
2018-10-19T08:13:20.381Z,100871.00
2018-10-19T08:18:15.559Z,100874.00
2018-10-19T08:20:44.039Z,100878.00
2018-10-19T08:25:38.651Z,100880.00
2018-10-19T08:28:06.236Z,100880.00
2018-10-19T08:33:01.477Z,100888.00
2018-10-19T08:35:29.211Z,100884.00
2018-10-19T08:40:24.047Z,100880.00
2018-10-19T08:42:52.042Z,100882.00
2018-10-19T08:45:19.970Z,100880.00
2018-10-19T08:47:48.004Z,100888.00
2018-10-19T08:50:15.800Z,100886.00
2018-10-19T08:52:43.423Z,100891.00
2018-10-19T08:55:11.165Z,100889.00
2018-10-19T09:00:08.476Z,100895.00
2018-10-19T09:02:36.263Z,100896.00
2018-10-19T09:05:04.452Z,100898.00
2018-10-19T09:07:32.130Z,100896.00
2018-10-19T09:09:59.769Z,100897.00
2018-10-19T09:12:27.927Z,100900.00
2018-10-19T09:14:57.975Z,100903.00
2018-10-19T09:17:25.672Z,100906.00
2018-10-19T09:19:53.947Z,100906.00
2018-10-19T09:22:21.611Z,100914.00
2018-10-19T09:24:50.400Z,100906.00
2018-10-19T09:27:18.510Z,100903.00
2018-10-19T09:29:46.241Z,100905.00
2018-10-19T09:32:13.951Z,100905.00
2018-10-19T09:34:41.794Z,100910.00
2018-10-19T09:37:10.449Z,100913.00
2018-10-19T09:39:38.057Z,100917.00
2018-10-19T09:42:06.079Z,100914.00
2018-10-19T09:44:33.906Z,100905.00
2018-10-19T09:47:01.615Z,100906.00
2018-10-19T09:49:29.544Z,100908.00
2018-10-19T09:51:57.262Z,100905.00
2018-10-19T09:54:24.933Z,100909.00
2018-10-19T10:01:47.452Z,100908.00
2018-10-19T10:04:15.127Z,100909.00
2018-10-19T10:06:43.076Z,100912.00
2018-10-19T10:09:13.455Z,100912.00
2018-10-19T10:11:41.113Z,100908.00
2018-10-19T10:18:14.506Z,100909.00
2018-10-19T10:20:42.205Z,100914.00
2018-10-19T10:23:10.215Z,100911.00
2018-10-19T10:25:38.014Z,100910.00
2018-10-19T10:28:05.739Z,100909.00
2018-10-19T10:33:00.972Z,100909.00
2018-10-19T10:35:28.382Z,100914.00
2018-10-19T10:37:56.342Z,100911.00
2018-10-19T10:40:24.003Z,100916.00
2018-10-19T10:42:51.556Z,100918.00
2018-10-19T10:45:19.281Z,100913.00
2018-10-19T10:47:46.868Z,100917.00
2018-10-19T10:50:14.484Z,100913.00
2018-10-19T10:52:42.457Z,100913.00
2018-10-19T10:55:10.091Z,100911.00
2018-10-19T10:57:37.654Z,100909.00
2018-10-19T11:02:33.417Z,100905.00
2018-10-19T11:05:01.049Z,100907.00
2018-10-19T11:09:56.095Z,100902.00
2018-10-19T11:12:23.865Z,100900.00
2018-10-19T11:17:18.704Z,100898.00
2018-10-19T11:19:46.670Z,100897.00
2018-10-19T11:22:14.401Z,100892.00
2018-10-19T11:24:41.909Z,100895.00
2018-10-19T11:29:37.232Z,100888.00
2018-10-19T11:32:04.880Z,100886.00
2018-10-19T11:37:00.315Z,100889.00
2018-10-19T11:41:55.509Z,100885.00
2018-10-19T11:44:23.177Z,100885.00
2018-10-19T11:49:18.113Z,100884.00
2018-10-19T11:51:45.624Z,100881.00
2018-10-19T11:56:41.114Z,100884.00
2018-10-19T11:59:08.668Z,100886.00
2018-10-19T12:01:36.461Z,100883.00
2018-10-19T12:04:04.057Z,100882.00
2018-10-19T12:06:31.676Z,100879.00
2018-10-19T12:08:59.562Z,100879.00
2018-10-19T12:11:27.230Z,100878.00
2018-10-19T12:13:54.820Z,100875.00
2018-10-19T12:18:49.980Z,100871.00
2018-10-19T12:21:17.653Z,100869.00
2018-10-19T12:26:12.590Z,100871.00
2018-10-19T12:28:40.148Z,100868.00
2018-10-19T12:33:34.839Z,100869.00
2018-10-19T12:38:30.112Z,100865.00
2018-10-19T12:40:57.755Z,100867.00
2018-10-19T12:46:37.230Z,100858.00
2018-10-19T12:49:05.450Z,100856.00
2018-10-19T12:51:33.244Z,100857.00
2018-10-19T12:54:01.007Z,100857.00
2018-10-19T12:58:55.981Z,100857.00
2018-10-19T13:01:24.763Z,100857.00
2018-10-19T13:03:52.671Z,100852.00
2018-10-19T13:06:21.293Z,100853.00
2018-10-19T13:08:48.946Z,100850.00
2018-10-19T13:13:44.189Z,100840.00
2018-10-19T13:16:11.923Z,100835.00
2018-10-19T13:18:39.838Z,100832.00
2018-10-19T13:21:07.549Z,100839.00
2018-10-19T13:23:35.213Z,100836.00
2018-10-19T13:28:30.324Z,100827.00
2018-10-19T13:30:58.013Z,100827.00
2018-10-19T13:33:26.446Z,100828.00
2018-10-19T13:35:54.047Z,100826.00
2018-10-19T13:38:22.250Z,100826.00
2018-10-19T13:43:17.798Z,100828.00
2018-10-19T13:45:45.415Z,100823.00
2018-10-19T13:48:13.292Z,100827.00
2018-10-19T13:50:40.901Z,100830.00
2018-10-19T13:53:08.498Z,100823.00
2018-10-19T14:00:38.349Z,100825.00
2018-10-19T14:03:29.329Z,100820.00
2018-10-19T14:05:56.477Z,100825.00
2018-10-19T14:08:24.024Z,100827.00
2018-10-19T14:10:53.235Z,100823.00
2018-10-19T14:13:20.921Z,100822.00
2018-10-19T14:15:48.607Z,100820.00
2018-10-19T14:18:16.573Z,100815.00
2018-10-19T14:20:44.212Z,100817.00
2018-10-19T14:23:13.111Z,100811.00
2018-10-19T14:25:41.026Z,100810.00
2018-10-19T14:28:10.624Z,100813.00
2018-10-19T14:30:38.281Z,100813.00
2018-10-19T14:35:33.440Z,100808.00
2018-10-19T14:40:28.113Z,100809.00
2018-10-19T14:45:23.006Z,100813.00
2018-10-19T14:47:51.053Z,100810.00
2018-10-19T14:50:22.573Z,100812.00
2018-10-19T14:52:50.176Z,100814.00
2018-10-19T14:57:46.019Z,100813.00
2018-10-19T15:00:15.623Z,100814.00
2018-10-19T15:05:13.209Z,100813.00
2018-10-19T15:07:40.750Z,100814.00
2018-10-19T15:12:38.829Z,100817.00
2018-10-19T15:15:07.282Z,100825.00
2018-10-19T15:17:34.848Z,100825.00
2018-10-19T15:20:02.967Z,100828.00
2018-10-19T15:24:58.092Z,100826.00
2018-10-19T15:27:25.698Z,100822.00
2018-10-19T15:32:20.362Z,100824.00
2018-10-19T15:37:15.300Z,100819.00
2018-10-19T15:39:42.865Z,100815.00
2018-10-19T15:44:38.538Z,100813.00
2018-10-19T15:47:06.158Z,100816.00
2018-10-19T15:49:34.113Z,100811.00
2018-10-19T15:52:01.703Z,100813.00
2018-10-19T15:54:29.272Z,100813.00
2018-10-19T15:56:57.372Z,100815.00
2018-10-19T15:59:24.849Z,100818.00
2018-10-19T16:01:52.477Z,100818.00
2018-10-19T16:04:20.609Z,100825.00
2018-10-19T16:06:48.821Z,100822.00
2018-10-19T16:09:16.490Z,100827.00
2018-10-19T16:14:12.402Z,100829.00
2018-10-19T16:16:40.082Z,100829.00
2018-10-19T16:19:07.776Z,100835.00
2018-10-19T16:24:02.845Z,100841.00
2018-10-19T16:28:57.718Z,100840.00
2018-10-19T16:31:25.589Z,100848.00
2018-10-19T16:33:53.253Z,100849.00
2018-10-19T16:36:20.910Z,100847.00
2018-10-19T16:38:48.768Z,100844.00
2018-10-19T16:41:16.402Z,100845.00
2018-10-19T16:43:44.039Z,100852.00
2018-10-19T16:48:39.912Z,100849.00
2018-10-19T16:51:07.631Z,100847.00
2018-10-19T16:53:38.450Z,100854.00
2018-10-19T16:56:06.967Z,100859.00
2018-10-19T17:01:06.423Z,100855.00
2018-10-19T17:03:34.081Z,100859.00
2018-10-19T17:08:30.088Z,100860.00
2018-10-19T17:10:57.779Z,100863.00
2018-10-19T17:15:52.629Z,100858.00
2018-10-19T17:20:47.718Z,100858.00
2018-10-19T17:23:15.313Z,100859.00
2018-10-19T17:28:11.119Z,100862.00
2018-10-19T17:30:38.925Z,100864.00
2018-10-19T17:35:33.766Z,100865.00
2018-10-19T17:40:28.637Z,100869.00
2018-10-19T17:42:56.221Z,100873.00
2018-10-19T17:45:24.094Z,100875.00
2018-10-19T17:47:51.881Z,100875.00
2018-10-19T17:50:19.469Z,100880.00
2018-10-19T17:52:47.510Z,100874.00
2018-10-19T17:55:15.156Z,100877.00
2018-10-19T17:57:42.757Z,100876.00
2018-10-19T18:00:11.987Z,100878.00
2018-10-19T18:02:39.557Z,100879.00
2018-10-19T18:05:07.865Z,100877.00
2018-10-19T18:10:02.876Z,100878.00
2018-10-19T18:12:30.532Z,100871.00
2018-10-19T18:17:25.545Z,100872.00
2018-10-19T18:19:53.178Z,100879.00
2018-10-19T18:24:49.057Z,100881.00
2018-10-19T18:27:16.741Z,100884.00
2018-10-19T18:32:12.651Z,100887.00
2018-10-19T18:37:07.613Z,100882.00
2018-10-19T18:42:02.082Z,100894.00
2018-10-19T18:44:29.693Z,100893.00
2018-10-19T18:49:24.395Z,100897.00
2018-10-19T18:51:51.984Z,100900.00
2018-10-19T18:54:20.012Z,100899.00
2018-10-19T18:56:47.722Z,100906.00
2018-10-19T18:59:15.446Z,100903.00
2018-10-19T19:01:43.156Z,100911.00
2018-10-19T19:04:10.785Z,100914.00
2018-10-19T19:06:38.447Z,100919.00
2018-10-19T19:11:36.737Z,100919.00
2018-10-19T19:14:04.767Z,100925.00
2018-10-19T19:18:59.915Z,100924.00
2018-10-19T19:21:27.503Z,100923.00
2018-10-19T19:26:28.039Z,100925.00
2018-10-19T19:28:56.055Z,100924.00
2018-10-19T19:31:24.114Z,100923.00
2018-10-19T19:33:57.391Z,100925.00
2018-10-19T19:38:52.846Z,100920.00
2018-10-19T19:41:26.174Z,100926.00
2018-10-19T19:48:54.558Z,100929.00
2018-10-19T19:51:22.553Z,100932.00
2018-10-19T19:53:50.295Z,100933.00
2018-10-19T19:56:17.965Z,100937.00
2018-10-19T20:01:13.841Z,100935.00
2018-10-19T20:03:41.547Z,100933.00
2018-10-19T20:08:36.812Z,100940.00
2018-10-19T20:11:05.307Z,100937.00
2018-10-19T20:16:00.301Z,100940.00
2018-10-19T20:18:28.111Z,100940.00
2018-10-19T20:20:55.751Z,100939.00
2018-10-19T20:23:23.401Z,100940.00
2018-10-19T20:28:18.209Z,100942.00
2018-10-19T20:30:45.929Z,100939.00
2018-10-19T20:35:40.876Z,100944.00
2018-10-19T20:38:08.565Z,100940.00
2018-10-19T20:40:38.609Z,100942.00
2018-10-19T20:43:07.051Z,100945.00
2018-10-19T20:45:36.886Z,100942.00
2018-10-19T20:50:42.211Z,100941.00
2018-10-19T20:53:09.927Z,100942.00
2018-10-19T20:58:20.794Z,100953.00
2018-10-19T21:00:49.566Z,100949.00
2018-10-19T21:09:42.759Z,100954.00
2018-10-19T21:14:37.472Z,100953.00
2018-10-19T21:17:05.159Z,100952.00
2018-10-19T21:22:00.417Z,100951.00
2018-10-19T21:24:28.034Z,100950.00
2018-10-19T21:26:56.080Z,100945.00
2018-10-19T21:29:23.625Z,100943.00
2018-10-19T21:31:51.239Z,100942.00
2018-10-19T21:34:20.443Z,100947.00
2018-10-19T21:36:48.102Z,100940.00
2018-10-19T21:39:15.669Z,100944.00
2018-10-19T21:41:43.735Z,100941.00
2018-10-19T21:44:11.363Z,100944.00
2018-10-19T21:46:38.881Z,100945.00
2018-10-19T21:51:33.844Z,100941.00
2018-10-19T21:54:24.868Z,100939.00
2018-10-19T21:57:30.641Z,100942.00
2018-10-19T21:59:58.301Z,100940.00
2018-10-19T22:05:23.543Z,100935.00
2018-10-19T22:10:23.207Z,100928.00
2018-10-19T22:12:50.821Z,100934.00
2018-10-19T22:15:32.734Z,100935.00
2018-10-19T22:18:00.304Z,100940.00
2018-10-19T22:20:29.734Z,100943.00
2018-10-19T22:25:33.034Z,100937.00
2018-10-19T22:28:08.512Z,100932.00
2018-10-19T22:30:55.871Z,100933.00
2018-10-19T22:33:23.425Z,100941.00
2018-10-19T22:38:18.368Z,100944.00
2018-10-19T22:40:46.027Z,100949.00
2018-10-19T22:45:40.776Z,100949.00
2018-10-19T22:48:08.801Z,100948.00
2018-10-19T22:50:36.421Z,100955.00
2018-10-19T22:53:04.169Z,100959.00
2018-10-19T22:55:32.114Z,100961.00
2018-10-19T22:57:59.767Z,100955.00
2018-10-19T23:00:27.376Z,100952.00
2018-10-19T23:02:55.232Z,100952.00
2018-10-19T23:05:22.884Z,100957.00
2018-10-19T23:07:50.484Z,100956.00
2018-10-19T23:13:17.336Z,100950.00
2018-10-19T23:17:08.603Z,100957.00
2018-10-19T23:19:36.252Z,100951.00
2018-10-19T23:27:34.237Z,100951.00
2018-10-19T23:32:46.335Z,100957.00
2018-10-19T23:35:19.503Z,100959.00
2018-10-19T23:37:47.152Z,100955.00
2018-10-19T23:40:14.679Z,100957.00
2018-10-19T23:42:42.556Z,100962.00
2018-10-19T23:45:10.112Z,100961.00
2018-10-19T23:47:37.768Z,100957.00
2018-10-19T23:55:00.876Z,100959.00
2018-10-19T23:57:28.459Z,100961.00
